createdAt,value
2017-09-24T00:00:37.579Z,48.67
2017-09-24T00:03:07.437Z,45.97
2017-09-24T00:05:36.632Z,45.03
2017-09-24T00:08:05.690Z,45.57
2017-09-24T00:10:35.601Z,47.57
2017-09-24T00:13:04.717Z,47.30
2017-09-24T00:15:34.540Z,47.77
2017-09-24T00:18:03.626Z,51.17
2017-09-24T00:20:33.479Z,46.60
2017-09-24T00:23:02.789Z,48.00
2017-09-24T00:25:31.853Z,46.17
2017-09-24T00:28:00.933Z,45.00
2017-09-24T00:30:29.997Z,42.63
2017-09-24T00:33:00.587Z,41.80
2017-09-24T00:35:29.676Z,42.80
2017-09-24T00:37:58.817Z,40.80
2017-09-24T00:40:29.407Z,38.20
2017-09-24T00:42:58.828Z,38.60
2017-09-24T00:45:27.881Z,39.83
2017-09-24T00:47:57.735Z,40.67
2017-09-24T00:50:26.913Z,40.47
2017-09-24T00:52:56.083Z,41.90
2017-09-24T00:55:25.938Z,40.00
2017-09-24T00:57:55.016Z,41.00
2017-09-24T01:00:24.109Z,41.73
2017-09-24T01:02:53.164Z,41.80
2017-09-24T01:05:22.283Z,40.17
2017-09-24T01:07:52.126Z,40.77
2017-09-24T01:10:21.552Z,40.40
2017-09-24T01:12:50.616Z,37.10
2017-09-24T01:15:19.692Z,38.30
2017-09-24T01:17:48.794Z,37.07
2017-09-24T01:20:18.608Z,38.47
2017-09-24T01:22:47.688Z,38.13
2017-09-24T01:25:17.533Z,37.67
2017-09-24T01:27:46.579Z,37.80
2017-09-24T01:30:16.420Z,35.40
2017-09-24T01:32:46.255Z,37.77
2017-09-24T01:35:15.385Z,37.57
2017-09-24T01:37:44.425Z,40.60
2017-09-24T01:40:14.258Z,37.97
2017-09-24T01:42:43.310Z,38.47
2017-09-24T01:45:13.137Z,38.77
2017-09-24T01:47:43.023Z,36.70
2017-09-24T01:50:12.088Z,39.40
2017-09-24T01:52:41.183Z,39.37
2017-09-24T01:55:10.280Z,39.53
2017-09-24T01:57:39.355Z,38.53
2017-09-24T02:00:08.441Z,37.43
2017-09-24T02:02:38.293Z,36.83
2017-09-24T02:05:07.368Z,38.50
2017-09-24T02:07:36.438Z,39.50
2017-09-24T02:10:05.633Z,38.10
2017-09-24T02:12:35.456Z,38.60
2017-09-24T02:15:04.607Z,38.57
2017-09-24T02:17:33.684Z,38.17
2017-09-24T02:20:02.755Z,39.50
2017-09-24T02:22:31.827Z,34.63
2017-09-24T02:25:01.711Z,39.63
2017-09-24T02:27:32.256Z,37.07
2017-09-24T02:30:02.120Z,36.23
2017-09-24T02:32:31.212Z,37.30
2017-09-24T02:35:00.270Z,34.53
2017-09-24T02:37:30.096Z,38.00
2017-09-24T02:39:59.193Z,37.30
2017-09-24T02:42:28.566Z,37.73
2017-09-24T02:44:58.085Z,36.17
2017-09-24T02:47:27.111Z,39.27
2017-09-24T02:49:56.195Z,35.90
2017-09-24T02:52:25.254Z,37.97
2017-09-24T02:54:54.321Z,37.60
2017-09-24T02:57:23.396Z,37.30
2017-09-24T02:59:52.451Z,39.37
2017-09-24T03:02:22.298Z,36.80
2017-09-24T03:04:51.384Z,36.33
2017-09-24T03:07:20.490Z,35.80
2017-09-24T03:09:49.537Z,35.67
2017-09-24T03:12:20.128Z,36.97
2017-09-24T03:14:49.360Z,39.80
2017-09-24T03:17:19.215Z,36.90
2017-09-24T03:19:48.284Z,36.23
2017-09-24T03:22:18.370Z,35.93
2017-09-24T03:24:47.445Z,37.77
2017-09-24T03:27:16.497Z,36.70
2017-09-24T03:29:46.326Z,36.50
2017-09-24T03:32:15.398Z,34.00
2017-09-24T03:34:44.473Z,38.27
2017-09-24T03:37:15.186Z,36.43
2017-09-24T03:39:44.287Z,37.67
2017-09-24T03:42:13.359Z,37.23
2017-09-24T03:44:42.429Z,35.60
2017-09-24T03:47:12.250Z,39.03
2017-09-24T03:49:41.425Z,36.80
2017-09-24T03:52:11.292Z,36.00
2017-09-24T03:54:40.368Z,36.23
2017-09-24T03:57:09.463Z,39.20
2017-09-24T03:59:38.536Z,37.20
2017-09-24T04:02:08.348Z,40.20
2017-09-24T04:04:38.198Z,38.70
2017-09-24T04:07:07.267Z,39.10
2017-09-24T04:09:36.344Z,38.40
2017-09-24T04:12:05.400Z,39.50
2017-09-24T04:14:34.473Z,36.97
2017-09-24T04:17:03.524Z,37.77
2017-09-24T04:19:33.376Z,34.40
2017-09-24T04:22:02.440Z,36.80
2017-09-24T04:24:32.316Z,37.30
2017-09-24T04:27:01.393Z,35.13
2017-09-24T04:29:30.466Z,36.10
2017-09-24T04:31:59.560Z,37.13
2017-09-24T04:34:29.451Z,36.97
2017-09-24T04:36:58.537Z,38.13
2017-09-24T04:39:27.681Z,37.63
2017-09-24T04:41:56.899Z,38.50
2017-09-24T04:44:25.958Z,37.20
2017-09-24T04:46:55.019Z,36.67
2017-09-24T04:49:24.108Z,36.77
2017-09-24T04:51:53.517Z,39.70
2017-09-24T04:54:24.117Z,40.30
2017-09-24T04:56:53.184Z,42.30
2017-09-24T04:59:22.248Z,39.53
2017-09-24T05:01:52.085Z,41.43
2017-09-24T05:04:21.153Z,37.37
2017-09-24T05:06:50.228Z,38.20
2017-09-24T05:09:19.312Z,39.37
2017-09-24T05:11:48.374Z,37.40
2017-09-24T05:14:17.453Z,39.53
2017-09-24T05:16:47.266Z,40.67
2017-09-24T05:19:17.119Z,38.23
2017-09-24T05:21:46.177Z,38.70
2017-09-24T05:24:16.065Z,35.93
2017-09-24T05:26:45.089Z,37.20
2017-09-24T05:29:14.945Z,38.10
2017-09-24T05:31:44.025Z,39.20
2017-09-24T05:34:13.244Z,38.40
2017-09-24T05:36:42.329Z,36.50
2017-09-24T05:39:11.415Z,35.50
2017-09-24T05:41:40.487Z,35.70
2017-09-24T05:44:09.554Z,36.53
2017-09-24T05:46:38.694Z,35.70
2017-09-24T05:49:07.826Z,37.47
2017-09-24T05:51:36.904Z,37.90
2017-09-24T05:54:05.971Z,36.37
2017-09-24T05:56:35.017Z,38.60
2017-09-24T05:59:05.619Z,38.97
2017-09-24T06:01:34.681Z,39.23
2017-09-24T06:04:03.759Z,38.80
2017-09-24T06:06:33.128Z,34.70
2017-09-24T06:09:02.363Z,37.53
2017-09-24T06:11:32.196Z,41.20
2017-09-24T06:14:02.065Z,38.67
2017-09-24T06:16:31.126Z,37.70
2017-09-24T06:19:00.183Z,38.60
2017-09-24T06:21:30.243Z,37.20
2017-09-24T06:23:59.325Z,38.60
2017-09-24T06:26:28.486Z,40.07
2017-09-24T06:28:57.537Z,42.23
2017-09-24T06:31:26.629Z,43.57
2017-09-24T06:33:55.681Z,46.67
2017-09-24T06:36:25.542Z,44.60
2017-09-24T06:38:54.588Z,43.30
2017-09-24T06:41:24.631Z,42.13
2017-09-24T06:43:53.686Z,41.73
2017-09-24T06:46:22.778Z,37.63
2017-09-24T06:48:51.841Z,38.33
2017-09-24T06:51:20.922Z,37.67
2017-09-24T06:53:50.004Z,39.00
2017-09-24T06:56:19.072Z,40.13
2017-09-24T06:58:48.907Z,36.80
2017-09-24T07:01:18.751Z,36.80
2017-09-24T07:03:47.921Z,36.97
2017-09-24T07:06:17.104Z,37.37
2017-09-24T07:08:46.167Z,39.73
2017-09-24T07:11:15.225Z,39.77
2017-09-24T07:13:44.298Z,40.23
2017-09-24T07:16:14.136Z,38.90
2017-09-24T07:18:43.203Z,37.60
2017-09-24T07:21:13.061Z,40.70
2017-09-24T07:23:42.121Z,38.60
2017-09-24T07:26:11.189Z,40.77
2017-09-24T07:28:41.043Z,41.03
2017-09-24T07:31:10.116Z,37.83
2017-09-24T07:33:39.199Z,38.30
2017-09-24T07:36:09.027Z,37.13
2017-09-24T07:38:38.864Z,35.57
2017-09-24T07:41:07.944Z,38.77
2017-09-24T07:43:37.001Z,38.07
2017-09-24T07:46:06.095Z,38.00
2017-09-24T07:48:35.180Z,36.63
2017-09-24T07:51:04.256Z,37.57
2017-09-24T07:53:33.336Z,38.97
2017-09-24T07:56:02.419Z,39.70
2017-09-24T07:58:31.479Z,42.20
2017-09-24T08:01:00.552Z,36.00
2017-09-24T08:03:29.637Z,38.77
2017-09-24T08:05:58.704Z,39.47
2017-09-24T08:08:27.799Z,40.00
2017-09-24T08:10:56.858Z,40.33
2017-09-24T08:13:26.726Z,39.57
2017-09-24T08:15:55.780Z,39.33
2017-09-24T08:18:25.640Z,40.73
2017-09-24T08:20:54.707Z,40.03
2017-09-24T08:23:23.762Z,40.87
2017-09-24T08:25:52.867Z,42.90
2017-09-24T08:28:21.959Z,41.07
2017-09-24T08:30:51.044Z,40.20
2017-09-24T08:33:20.107Z,40.17
2017-09-24T08:35:49.197Z,43.50
2017-09-24T08:38:18.502Z,40.43
2017-09-24T08:40:47.574Z,42.20
2017-09-24T08:43:16.671Z,46.43
2017-09-24T08:45:45.726Z,47.60
2017-09-24T08:48:14.797Z,48.17
2017-09-24T08:50:43.867Z,51.80
2017-09-24T08:53:12.948Z,55.30
2017-09-24T08:55:42.029Z,55.23
2017-09-24T08:58:11.899Z,54.23
2017-09-24T09:00:40.956Z,53.80
2017-09-24T09:03:10.035Z,51.57
2017-09-24T09:05:39.913Z,52.13
2017-09-24T09:08:08.980Z,49.57
2017-09-24T09:10:38.056Z,51.57
2017-09-24T09:13:07.134Z,52.37
2017-09-24T09:15:37.020Z,54.43
2017-09-24T09:18:06.122Z,50.43
2017-09-24T09:20:35.259Z,56.13
2017-09-24T09:23:04.352Z,52.07
2017-09-24T09:25:34.218Z,55.17
2017-09-24T09:28:03.304Z,57.30
2017-09-24T09:30:32.355Z,52.27
2017-09-24T09:33:19.339Z,54.40
2017-09-24T09:35:48.431Z,59.20
2017-09-24T09:38:18.301Z,56.00
2017-09-24T09:40:47.390Z,56.37
2017-09-24T09:46:39.588Z,54.23
2017-09-24T09:49:08.685Z,57.00
2017-09-24T09:51:37.788Z,55.20
2017-09-24T09:54:07.629Z,58.23
2017-09-24T09:56:36.717Z,54.17
2017-09-24T09:59:06.545Z,58.13
2017-09-24T10:01:35.605Z,61.30
2017-09-24T10:04:04.711Z,60.50
2017-09-24T10:06:47.499Z,62.07
2017-09-24T10:09:34.324Z,62.33
2017-09-24T10:12:04.943Z,60.43
2017-09-24T10:14:34.168Z,63.60
2017-09-24T10:17:04.071Z,60.90
2017-09-24T10:19:33.142Z,57.53
2017-09-24T10:22:02.203Z,61.73
2017-09-24T10:24:31.307Z,60.17
2017-09-24T10:27:00.526Z,61.03
2017-09-24T10:29:29.592Z,62.70
2017-09-24T10:32:03.702Z,56.73
2017-09-24T10:34:32.781Z,52.23
2017-09-24T10:37:02.600Z,52.97
2017-09-24T10:39:32.456Z,57.60
2017-09-24T10:42:01.552Z,48.27
2017-09-24T10:44:30.604Z,48.47
2017-09-24T10:47:00.497Z,51.20
2017-09-24T10:49:29.537Z,46.50
2017-09-24T10:51:58.596Z,48.00
2017-09-24T10:54:27.681Z,47.47
2017-09-24T10:56:56.739Z,49.30
2017-09-24T10:59:25.834Z,44.67
2017-09-24T11:01:54.987Z,43.30
2017-09-24T11:04:24.924Z,41.47
2017-09-24T11:06:54.017Z,40.40
2017-09-24T11:09:23.085Z,40.53
2017-09-24T11:11:53.095Z,40.70
2017-09-24T11:14:22.188Z,41.23
2017-09-24T11:16:51.240Z,37.23
2017-09-24T11:19:20.329Z,41.00
2017-09-24T11:21:49.562Z,27.77
2017-09-24T11:24:18.749Z,31.47
2017-09-24T11:26:48.014Z,28.67
2017-09-24T11:29:17.401Z,32.47
2017-09-24T11:31:47.273Z,28.77
2017-09-24T11:34:16.781Z,27.93
2017-09-24T11:36:46.284Z,34.07
2017-09-24T11:39:15.411Z,23.93
2017-09-24T11:41:44.549Z,25.80
2017-09-24T11:44:13.639Z,29.07
2017-09-24T11:46:42.729Z,24.83
2017-09-24T11:49:11.845Z,28.50
2017-09-24T11:51:40.935Z,25.37
2017-09-24T11:54:10.009Z,28.70
2017-09-24T11:56:39.085Z,29.07
2017-09-24T11:59:08.942Z,27.27
2017-09-24T12:01:38.017Z,29.30
2017-09-24T12:04:07.068Z,30.30
2017-09-24T12:06:36.235Z,30.57
2017-09-24T12:09:05.288Z,29.63
2017-09-24T12:11:35.114Z,32.23
2017-09-24T12:14:04.180Z,30.40
2017-09-24T12:16:34.060Z,34.10
2017-09-24T12:19:03.134Z,33.70
2017-09-24T12:21:32.220Z,36.03
2017-09-24T12:24:02.073Z,37.80
2017-09-24T12:26:31.164Z,36.80
2017-09-24T12:29:00.232Z,37.00
2017-09-24T12:31:29.322Z,31.37
2017-09-24T12:33:58.384Z,29.93
2017-09-24T12:36:28.265Z,28.00
2017-09-24T12:38:57.351Z,31.40
2017-09-24T12:41:26.448Z,27.47
2017-09-24T12:43:55.520Z,26.80
2017-09-24T12:46:24.585Z,25.80
2017-09-24T12:48:54.424Z,27.23
2017-09-24T12:51:23.502Z,29.43
2017-09-24T12:53:53.349Z,29.30
2017-09-24T12:56:22.439Z,29.77
2017-09-24T12:58:51.506Z,28.93
2017-09-24T13:01:21.348Z,29.87
2017-09-24T13:03:50.486Z,28.00
2017-09-24T13:06:20.441Z,27.93
2017-09-24T13:08:49.500Z,31.60
2017-09-24T13:11:18.576Z,32.50
2017-09-24T13:13:47.668Z,33.27
2017-09-24T13:16:16.747Z,29.03
2017-09-24T13:18:45.821Z,27.43
2017-09-24T13:21:14.887Z,26.37
2017-09-24T13:23:44.707Z,29.37
2017-09-24T13:26:14.596Z,29.77
2017-09-24T13:28:43.658Z,30.80
2017-09-24T13:31:12.746Z,28.23
2017-09-24T13:33:41.836Z,31.20
2017-09-24T13:36:10.916Z,30.70
2017-09-24T13:38:40.756Z,29.90
2017-09-24T13:41:09.839Z,30.97
2017-09-24T13:43:38.882Z,30.67
2017-09-24T13:46:09.556Z,32.20
2017-09-24T13:48:38.624Z,29.53
2017-09-24T13:51:08.537Z,30.23
2017-09-24T13:53:37.628Z,32.50
2017-09-24T13:56:06.739Z,31.87
2017-09-24T13:58:36.587Z,30.80
2017-09-24T14:01:05.641Z,31.47
2017-09-24T14:03:35.484Z,30.30
2017-09-24T14:06:04.567Z,26.90
2017-09-24T14:08:33.632Z,28.87
2017-09-24T14:11:02.720Z,30.50
2017-09-24T14:13:32.426Z,30.63
2017-09-24T14:16:01.484Z,31.00
2017-09-24T14:18:30.572Z,30.83
2017-09-24T14:20:59.664Z,30.30
2017-09-24T14:23:28.727Z,29.00
2017-09-24T14:25:58.585Z,28.57
2017-09-24T14:28:27.677Z,30.47
2017-09-24T14:30:56.930Z,35.00
2017-09-24T14:33:26.001Z,31.77
2017-09-24T14:35:55.102Z,33.73
2017-09-24T14:38:24.169Z,31.07
2017-09-24T14:40:53.265Z,31.67
2017-09-24T14:43:22.337Z,34.37
2017-09-24T14:45:52.167Z,34.70
2017-09-24T14:48:21.258Z,34.83
2017-09-24T14:50:50.328Z,34.47
2017-09-24T14:53:20.178Z,33.80
2017-09-24T14:55:49.253Z,34.00
2017-09-24T14:58:19.086Z,31.67
2017-09-24T15:00:48.395Z,31.67
2017-09-24T15:03:17.436Z,29.90
2017-09-24T15:05:47.304Z,30.33
2017-09-24T15:08:16.376Z,31.37
2017-09-24T15:10:45.456Z,32.20
2017-09-24T15:13:15.295Z,30.50
2017-09-24T15:15:44.371Z,27.93
2017-09-24T15:18:13.471Z,28.23
2017-09-24T15:20:43.540Z,26.80
2017-09-24T15:23:12.616Z,29.13
2017-09-24T15:25:41.685Z,28.63
2017-09-24T15:28:10.733Z,26.77
2017-09-24T15:30:40.681Z,25.87
2017-09-24T15:33:10.537Z,25.33
2017-09-24T15:35:39.631Z,24.80
2017-09-24T15:38:08.720Z,24.57
2017-09-24T15:40:37.815Z,26.77
2017-09-24T15:43:06.881Z,25.60
2017-09-24T15:45:36.967Z,25.97
2017-09-24T15:48:06.176Z,26.13
2017-09-24T15:50:36.011Z,23.07
2017-09-24T15:53:05.103Z,22.23
2017-09-24T15:55:34.947Z,23.87
2017-09-24T15:58:04.057Z,22.80
2017-09-24T16:00:33.116Z,21.60
2017-09-24T16:03:02.183Z,22.63
2017-09-24T16:05:32.064Z,20.53
2017-09-24T16:08:01.128Z,20.13
2017-09-24T16:10:30.201Z,22.37
2017-09-24T16:13:00.145Z,20.40
2017-09-24T16:15:29.997Z,21.20
2017-09-24T16:17:59.053Z,21.50
2017-09-24T16:20:28.128Z,22.73
2017-09-24T16:22:57.953Z,19.27
2017-09-24T16:25:27.026Z,15.43
2017-09-24T16:27:57.818Z,15.03
2017-09-24T16:30:26.879Z,14.40
2017-09-24T16:32:55.975Z,16.03
2017-09-24T16:35:25.034Z,14.60
2017-09-24T16:37:54.108Z,12.80
2017-09-24T16:40:23.168Z,12.47
2017-09-24T16:42:52.225Z,8.70
2017-09-24T16:45:22.067Z,7.83
2017-09-24T16:47:51.160Z,7.07
2017-09-24T16:50:20.212Z,6.73
2017-09-24T16:52:49.293Z,7.37
2017-09-24T16:55:18.356Z,7.00
2017-09-24T16:57:47.416Z,7.40
2017-09-24T17:00:16.481Z,6.43
2017-09-24T17:02:46.325Z,6.93
2017-09-24T17:05:18.329Z,6.17
2017-09-24T17:07:47.404Z,6.90
2017-09-24T17:10:17.204Z,7.10
2017-09-24T17:12:46.280Z,5.73
2017-09-24T17:15:15.327Z,6.23
2017-09-24T17:17:44.729Z,6.50
2017-09-24T17:20:14.286Z,7.30
2017-09-24T17:22:43.348Z,7.27
2017-09-24T17:25:12.467Z,7.80
2017-09-24T17:27:41.528Z,8.53
2017-09-24T17:30:10.623Z,8.40
2017-09-24T17:32:39.691Z,8.47
2017-09-24T17:35:09.581Z,10.00
2017-09-24T17:37:38.756Z,10.60
2017-09-24T17:40:08.117Z,10.90
2017-09-24T17:42:37.992Z,12.10
2017-09-24T17:45:07.499Z,13.83
2017-09-24T17:47:38.094Z,13.27
2017-09-24T17:50:07.378Z,14.60
2017-09-24T17:52:36.545Z,15.47
2017-09-24T17:55:06.764Z,14.80
2017-09-24T17:57:35.868Z,16.00
2017-09-24T18:00:05.712Z,15.30
2017-09-24T18:02:34.797Z,11.60
2017-09-24T18:05:03.882Z,10.70
2017-09-24T18:07:32.997Z,12.17
2017-09-24T18:10:02.055Z,12.20
2017-09-24T18:12:31.959Z,11.33
2017-09-24T18:15:01.034Z,12.20
2017-09-24T18:17:30.132Z,11.80
2017-09-24T18:19:59.230Z,10.63
2017-09-24T18:22:28.292Z,11.80
2017-09-24T18:24:57.392Z,12.57
2017-09-24T18:27:26.711Z,12.17
2017-09-24T18:29:55.792Z,12.17
2017-09-24T18:32:24.843Z,12.90
2017-09-24T18:34:54.716Z,12.40
2017-09-24T18:37:23.830Z,12.07
2017-09-24T18:39:52.896Z,11.93
2017-09-24T18:42:22.016Z,12.40
2017-09-24T18:44:51.100Z,12.73
2017-09-24T18:47:20.223Z,12.17
2017-09-24T18:49:50.041Z,12.90
2017-09-24T18:52:19.900Z,12.67
2017-09-24T18:54:49.143Z,13.07
2017-09-24T18:57:19.214Z,13.80
2017-09-24T18:59:48.878Z,13.50
2017-09-24T19:02:18.736Z,24.40
2017-09-24T19:04:47.931Z,30.57
2017-09-24T19:07:18.138Z,25.00
2017-09-24T19:09:47.270Z,14.30
2017-09-24T19:12:16.357Z,14.33
2017-09-24T19:14:45.640Z,14.30
2017-09-24T19:17:15.097Z,14.27
2017-09-24T19:19:44.968Z,15.97
2017-09-24T19:22:14.179Z,15.00
2017-09-24T19:24:43.523Z,14.77
2017-09-24T19:27:12.785Z,16.40
2017-09-24T19:29:41.980Z,15.03
2017-09-24T19:32:11.376Z,18.00
2017-09-24T19:34:40.529Z,17.53
2017-09-24T19:37:09.758Z,16.83
2017-09-24T19:39:39.140Z,16.60
2017-09-24T19:42:08.354Z,16.93
2017-09-24T19:44:37.711Z,16.40
2017-09-24T19:47:07.021Z,14.80
2017-09-24T19:49:36.186Z,14.30
2017-09-24T19:52:05.281Z,12.87
2017-09-24T19:54:34.384Z,13.17
2017-09-24T19:57:04.117Z,15.27
2017-09-24T19:59:33.194Z,15.47
2017-09-24T20:02:02.284Z,14.37
2017-09-24T20:04:31.381Z,13.83
2017-09-24T20:07:00.486Z,13.63
2017-09-24T20:09:29.569Z,13.50
2017-09-24T20:11:59.504Z,13.87
2017-09-24T20:14:28.565Z,15.10
2017-09-24T20:16:57.679Z,14.20
2017-09-24T20:19:26.760Z,14.50
2017-09-24T20:21:56.616Z,16.20
2017-09-24T20:24:26.466Z,14.30
2017-09-24T20:26:56.492Z,15.73
2017-09-24T20:29:25.598Z,15.80
2017-09-24T20:31:54.668Z,14.20
2017-09-24T20:34:23.753Z,15.93
2017-09-24T20:36:52.843Z,19.30
2017-09-24T20:39:22.688Z,19.10
2017-09-24T20:41:51.755Z,20.33
2017-09-24T20:44:21.571Z,17.83
2017-09-24T20:46:50.947Z,17.50
2017-09-24T20:49:19.987Z,16.60
2017-09-24T20:51:49.073Z,16.77
2017-09-24T20:54:18.146Z,19.50
2017-09-24T20:56:47.998Z,18.17
2017-09-24T20:59:17.074Z,18.33
2017-09-24T21:01:46.130Z,16.90
2017-09-24T21:04:15.241Z,17.87
2017-09-24T21:06:45.351Z,16.90
2017-09-24T21:09:14.854Z,16.80
2017-09-24T21:11:43.926Z,17.10
2017-09-24T21:14:12.994Z,14.73
2017-09-24T21:16:42.070Z,15.73
2017-09-24T21:19:11.923Z,15.90
2017-09-24T21:21:41.029Z,15.90
2017-09-24T21:24:10.054Z,15.27
2017-09-24T21:26:40.117Z,15.37
2017-09-24T21:29:09.208Z,14.20
2017-09-24T21:31:38.310Z,15.80
2017-09-24T21:34:07.379Z,14.13
2017-09-24T21:36:36.459Z,15.13
2017-09-24T21:39:06.267Z,16.63
2017-09-24T21:41:36.108Z,15.07
2017-09-24T21:44:05.474Z,15.23
2017-09-24T21:46:34.520Z,14.80
2017-09-24T21:49:03.608Z,15.00
2017-09-24T21:51:32.664Z,16.50
2017-09-24T21:54:02.516Z,15.20
2017-09-24T21:56:31.586Z,16.43
2017-09-24T21:59:01.447Z,15.10
2017-09-24T22:01:30.856Z,17.93
2017-09-24T22:03:59.932Z,21.13
2017-09-24T22:06:29.000Z,20.83
2017-09-24T22:08:58.584Z,21.53
2017-09-24T22:11:28.435Z,18.33
2017-09-24T22:13:57.519Z,19.40
2017-09-24T22:16:26.597Z,17.57
2017-09-24T22:18:56.435Z,17.30
2017-09-24T22:21:25.508Z,17.00
2017-09-24T22:23:55.339Z,17.10
2017-09-24T22:26:24.419Z,17.77
2017-09-24T22:28:54.649Z,18.20
2017-09-24T22:31:23.727Z,16.53
2017-09-24T22:33:53.543Z,16.63
2017-09-24T22:36:23.371Z,16.47
2017-09-24T22:38:52.451Z,17.23
2017-09-24T22:41:22.317Z,15.60
2017-09-24T22:43:51.492Z,15.07
2017-09-24T22:46:20.579Z,15.80
2017-09-24T22:48:49.665Z,17.50
2017-09-24T22:51:19.547Z,15.93
2017-09-24T22:53:48.620Z,15.00
2017-09-24T22:56:17.920Z,13.23
2017-09-24T22:58:46.997Z,13.43
2017-09-24T23:01:16.076Z,16.57
2017-09-24T23:03:45.144Z,15.90
2017-09-24T23:06:15.325Z,16.83
2017-09-24T23:08:44.795Z,16.70
2017-09-24T23:11:13.875Z,16.27
2017-09-24T23:13:43.709Z,15.30
2017-09-24T23:16:12.798Z,18.00
2017-09-24T23:18:41.927Z,16.93
2017-09-24T23:21:11.802Z,16.30
2017-09-24T23:23:40.869Z,16.93
2017-09-24T23:26:10.137Z,20.17
2017-09-24T23:28:39.216Z,20.03
2017-09-24T23:31:08.289Z,19.00
2017-09-24T23:33:38.131Z,22.33
2017-09-24T23:36:07.184Z,19.60
2017-09-24T23:38:37.047Z,19.40
2017-09-24T23:41:06.104Z,21.00
2017-09-24T23:43:35.186Z,21.10
2017-09-24T23:46:05.008Z,20.37
2017-09-24T23:48:35.215Z,20.83
2017-09-24T23:51:04.332Z,20.13
2017-09-24T23:53:33.427Z,18.97
2017-09-24T23:56:03.230Z,19.03
2017-09-24T23:58:33.304Z,19.97
